sensor_id;sensor_type;location;lat;lon;timestamp;P1;durP1;ratioP1;P2;durP2;ratioP2
47960;SDS011;33721;48.852;9.936;2023-04-01T00:00:21;5.45;;;0.28;;
47960;SDS011;33721;48.852;9.936;2023-04-01T00:02:47;3.45;;;0.40;;
47960;SDS011;33721;48.852;9.936;2023-04-01T00:05:13;1.45;;;0.10;;
47960;SDS011;33721;48.852;9.936;2023-04-01T00:07:39;3.15;;;0.35;;
47960;SDS011;33721;48.852;9.936;2023-04-01T00:10:06;2.20;;;0.30;;
47960;SDS011;33721;48.852;9.936;2023-04-01T00:12:35;4.05;;;0.30;;
47960;SDS011;33721;48.852;9.936;2023-04-01T00:15:01;2.67;;;0.82;;
47960;SDS011;33721;48.852;9.936;2023-04-01T00:17:27;2.42;;;0.50;;
47960;SDS011;33721;48.852;9.936;2023-04-01T00:19:56;2.58;;;0.45;;
47960;SDS011;33721;48.852;9.936;2023-04-01T00:22:23;2.03;;;0.32;;
47960;SDS011;33721;48.852;9.936;2023-04-01T00:24:49;2.67;;;0.40;;
47960;SDS011;33721;48.852;9.936;2023-04-01T00:27:15;2.25;;;0.30;;
47960;SDS011;33721;48.852;9.936;2023-04-01T00:29:41;5.00;;;0.30;;
47960;SDS011;33721;48.852;9.936;2023-04-01T00:32:08;3.78;;;0.85;;
47960;SDS011;33721;48.852;9.936;2023-04-01T00:34:34;4.75;;;0.40;;
47960;SDS011;33721;48.852;9.936;2023-04-01T00:37:00;1.98;;;0.35;;
47960;SDS011;33721;48.852;9.936;2023-04-01T00:39:28;4.82;;;0.30;;
47960;SDS011;33721;48.852;9.936;2023-04-01T00:41:54;6.18;;;0.45;;
47960;SDS011;33721;48.852;9.936;2023-04-01T00:44:33;2.78;;;0.30;;
47960;SDS011;33721;48.852;9.936;2023-04-01T00:47:02;1.23;;;0.40;;
47960;SDS011;33721;48.852;9.936;2023-04-01T00:49:31;2.28;;;0.30;;
47960;SDS011;33721;48.852;9.936;2023-04-01T00:52:02;3.30;;;0.35;;
47960;SDS011;33721;48.852;9.936;2023-04-01T00:54:29;1.95;;;0.47;;
47960;SDS011;33721;48.852;9.936;2023-04-01T00:59:32;4.68;;;0.43;;
47960;SDS011;33721;48.852;9.936;2023-04-01T01:02:02;2.55;;;0.30;;
47960;SDS011;33721;48.852;9.936;2023-04-01T01:04:32;3.15;;;0.40;;
47960;SDS011;33721;48.852;9.936;2023-04-01T01:12:26;2.05;;;0.38;;
47960;SDS011;33721;48.852;9.936;2023-04-01T01:26:21;3.03;;;0.30;;
47960;SDS011;33721;48.852;9.936;2023-04-01T01:34:36;4.07;;;0.20;;
47960;SDS011;33721;48.852;9.936;2023-04-01T01:37:16;3.88;;;0.30;;
47960;SDS011;33721;48.852;9.936;2023-04-01T01:39:44;1.90;;;0.28;;
47960;SDS011;33721;48.852;9.936;2023-04-01T01:42:20;2.08;;;0.28;;
47960;SDS011;33721;48.852;9.936;2023-04-01T01:44:47;2.63;;;0.30;;
47960;SDS011;33721;48.852;9.936;2023-04-01T01:47:15;3.42;;;0.30;;
47960;SDS011;33721;48.852;9.936;2023-04-01T01:49:43;0.77;;;0.15;;
47960;SDS011;33721;48.852;9.936;2023-04-01T01:52:10;1.02;;;0.20;;
47960;SDS011;33721;48.852;9.936;2023-04-01T01:54:46;5.78;;;0.30;;
47960;SDS011;33721;48.852;9.936;2023-04-01T01:57:13;2.70;;;0.50;;
47960;SDS011;33721;48.852;9.936;2023-04-01T01:59:41;0.43;;;0.15;;
47960;SDS011;33721;48.852;9.936;2023-04-01T02:02:08;3.28;;;0.17;;
47960;SDS011;33721;48.852;9.936;2023-04-01T02:04:37;1.55;;;0.28;;
47960;SDS011;33721;48.852;9.936;2023-04-01T02:07:07;1.13;;;0.28;;
47960;SDS011;33721;48.852;9.936;2023-04-01T02:09:37;1.88;;;0.35;;
47960;SDS011;33721;48.852;9.936;2023-04-01T02:12:04;2.20;;;0.85;;
47960;SDS011;33721;48.852;9.936;2023-04-01T02:14:37;3.17;;;0.40;;
47960;SDS011;33721;48.852;9.936;2023-04-01T02:17:12;2.45;;;0.40;;
47960;SDS011;33721;48.852;9.936;2023-04-01T02:19:50;0.35;;;0.20;;
47960;SDS011;33721;48.852;9.936;2023-04-01T02:22:20;2.50;;;0.40;;
47960;SDS011;33721;48.852;9.936;2023-04-01T02:24:50;2.35;;;0.30;;
47960;SDS011;33721;48.852;9.936;2023-04-01T02:27:21;1.33;;;0.22;;
47960;SDS011;33721;48.852;9.936;2023-04-01T02:29:48;3.85;;;0.38;;
47960;SDS011;33721;48.852;9.936;2023-04-01T02:32:14;3.63;;;0.68;;
47960;SDS011;33721;48.852;9.936;2023-04-01T02:34:41;2.20;;;0.25;;
47960;SDS011;33721;48.852;9.936;2023-04-01T02:37:08;4.85;;;0.52;;
47960;SDS011;33721;48.852;9.936;2023-04-01T02:39:33;3.30;;;0.30;;
47960;SDS011;33721;48.852;9.936;2023-04-01T02:41:59;3.03;;;0.30;;
47960;SDS011;33721;48.852;9.936;2023-04-01T02:44:25;2.97;;;0.30;;
47960;SDS011;33721;48.852;9.936;2023-04-01T02:46:51;2.47;;;0.10;;
47960;SDS011;33721;48.852;9.936;2023-04-01T02:49:17;1.65;;;0.25;;
47960;SDS011;33721;48.852;9.936;2023-04-01T02:51:43;3.03;;;0.30;;
47960;SDS011;33721;48.852;9.936;2023-04-01T02:54:09;1.48;;;0.30;;
47960;SDS011;33721;48.852;9.936;2023-04-01T02:56:34;2.30;;;0.40;;
47960;SDS011;33721;48.852;9.936;2023-04-01T02:59:00;4.18;;;0.30;;
47960;SDS011;33721;48.852;9.936;2023-04-01T03:01:26;0.93;;;0.20;;
47960;SDS011;33721;48.852;9.936;2023-04-01T03:03:51;3.50;;;0.20;;
47960;SDS011;33721;48.852;9.936;2023-04-01T03:06:17;0.38;;;0.10;;
47960;SDS011;33721;48.852;9.936;2023-04-01T03:08:43;1.45;;;0.20;;
47960;SDS011;33721;48.852;9.936;2023-04-01T03:11:09;2.08;;;0.17;;
47960;SDS011;33721;48.852;9.936;2023-04-01T03:13:36;1.30;;;0.20;;
47960;SDS011;33721;48.852;9.936;2023-04-01T03:16:01;0.60;;;0.15;;
47960;SDS011;33721;48.852;9.936;2023-04-01T03:18:27;0.70;;;0.15;;
47960;SDS011;33721;48.852;9.936;2023-04-01T03:20:53;1.92;;;0.20;;
47960;SDS011;33721;48.852;9.936;2023-04-01T03:23:18;0.08;;;0.00;;
47960;SDS011;33721;48.852;9.936;2023-04-01T03:25:46;2.38;;;0.25;;
47960;SDS011;33721;48.852;9.936;2023-04-01T03:28:11;1.00;;;0.10;;
47960;SDS011;33721;48.852;9.936;2023-04-01T03:30:38;1.55;;;0.22;;
47960;SDS011;33721;48.852;9.936;2023-04-01T03:33:04;0.43;;;0.13;;
47960;SDS011;33721;48.852;9.936;2023-04-01T03:35:30;0.30;;;0.08;;
47960;SDS011;33721;48.852;9.936;2023-04-01T03:37:56;1.95;;;0.10;;
47960;SDS011;33721;48.852;9.936;2023-04-01T03:40:22;1.08;;;0.10;;
47960;SDS011;33721;48.852;9.936;2023-04-01T03:42:48;0.85;;;0.10;;
47960;SDS011;33721;48.852;9.936;2023-04-01T03:45:14;1.58;;;0.00;;
47960;SDS011;33721;48.852;9.936;2023-04-01T03:47:40;0.40;;;0.17;;
47960;SDS011;33721;48.852;9.936;2023-04-01T03:50:07;0.30;;;0.00;;
47960;SDS011;33721;48.852;9.936;2023-04-01T03:52:33;2.03;;;0.10;;
47960;SDS011;33721;48.852;9.936;2023-04-01T03:54:59;0.40;;;0.20;;
47960;SDS011;33721;48.852;9.936;2023-04-01T03:57:26;0.85;;;0.30;;
47960;SDS011;33721;48.852;9.936;2023-04-01T03:59:51;2.35;;;0.10;;
47960;SDS011;33721;48.852;9.936;2023-04-01T04:02:17;0.38;;;0.10;;
47960;SDS011;33721;48.852;9.936;2023-04-01T04:04:43;0.38;;;0.00;;
47960;SDS011;33721;48.852;9.936;2023-04-01T04:07:08;2.75;;;0.20;;
47960;SDS011;33721;48.852;9.936;2023-04-01T04:09:34;1.20;;;0.10;;
47960;SDS011;33721;48.852;9.936;2023-04-01T04:12:00;2.60;;;0.10;;
47960;SDS011;33721;48.852;9.936;2023-04-01T04:14:26;2.55;;;0.10;;
47960;SDS011;33721;48.852;9.936;2023-04-01T04:16:51;0.10;;;0.08;;
47960;SDS011;33721;48.852;9.936;2023-04-01T04:19:17;2.33;;;0.10;;
47960;SDS011;33721;48.852;9.936;2023-04-01T04:21:43;3.38;;;0.10;;
47960;SDS011;33721;48.852;9.936;2023-04-01T04:24:09;0.05;;;0.00;;
47960;SDS011;33721;48.852;9.936;2023-04-01T04:26:35;1.60;;;0.10;;
47960;SDS011;33721;48.852;9.936;2023-04-01T04:29:01;1.77;;;0.10;;
47960;SDS011;33721;48.852;9.936;2023-04-01T04:31:27;0.22;;;0.10;;
47960;SDS011;33721;48.852;9.936;2023-04-01T04:33:53;2.00;;;0.10;;
47960;SDS011;33721;48.852;9.936;2023-04-01T04:36:20;0.82;;;0.10;;
47960;SDS011;33721;48.852;9.936;2023-04-01T04:38:46;0.15;;;0.03;;
47960;SDS011;33721;48.852;9.936;2023-04-01T04:41:13;0.20;;;0.00;;
47960;SDS011;33721;48.852;9.936;2023-04-01T04:43:40;0.93;;;0.30;;
47960;SDS011;33721;48.852;9.936;2023-04-01T04:46:10;2.00;;;0.52;;
47960;SDS011;33721;48.852;9.936;2023-04-01T04:48:36;0.20;;;0.10;;
47960;SDS011;33721;48.852;9.936;2023-04-01T04:51:02;1.60;;;0.10;;
47960;SDS011;33721;48.852;9.936;2023-04-01T04:53:28;1.40;;;0.08;;
47960;SDS011;33721;48.852;9.936;2023-04-01T04:55:54;1.85;;;0.10;;
47960;SDS011;33721;48.852;9.936;2023-04-01T04:58:19;0.43;;;0.13;;
47960;SDS011;33721;48.852;9.936;2023-04-01T05:00:46;0.35;;;0.08;;
47960;SDS011;33721;48.852;9.936;2023-04-01T05:03:12;0.17;;;0.00;;
47960;SDS011;33721;48.852;9.936;2023-04-01T05:05:38;0.22;;;0.10;;
47960;SDS011;33721;48.852;9.936;2023-04-01T05:08:13;2.88;;;0.10;;
47960;SDS011;33721;48.852;9.936;2023-04-01T05:10:38;1.75;;;0.10;;
47960;SDS011;33721;48.852;9.936;2023-04-01T05:13:04;1.38;;;0.20;;
47960;SDS011;33721;48.852;9.936;2023-04-01T05:15:30;0.43;;;0.10;;
47960;SDS011;33721;48.852;9.936;2023-04-01T05:17:56;1.27;;;0.20;;
47960;SDS011;33721;48.852;9.936;2023-04-01T05:20:21;0.93;;;0.10;;
47960;SDS011;33721;48.852;9.936;2023-04-01T05:22:47;0.70;;;0.15;;
47960;SDS011;33721;48.852;9.936;2023-04-01T05:25:13;1.45;;;0.25;;
47960;SDS011;33721;48.852;9.936;2023-04-01T05:27:38;1.98;;;0.20;;
47960;SDS011;33721;48.852;9.936;2023-04-01T05:30:04;2.22;;;0.15;;
47960;SDS011;33721;48.852;9.936;2023-04-01T05:32:31;2.33;;;0.28;;
47960;SDS011;33721;48.852;9.936;2023-04-01T05:34:57;1.08;;;0.20;;
47960;SDS011;33721;48.852;9.936;2023-04-01T05:37:22;1.67;;;0.30;;
47960;SDS011;33721;48.852;9.936;2023-04-01T05:39:48;1.58;;;0.20;;
47960;SDS011;33721;48.852;9.936;2023-04-01T05:42:14;0.90;;;0.10;;
47960;SDS011;33721;48.852;9.936;2023-04-01T05:44:40;4.45;;;0.20;;
47960;SDS011;33721;48.852;9.936;2023-04-01T05:47:06;5.50;;;0.40;;
47960;SDS011;33721;48.852;9.936;2023-04-01T05:49:32;1.50;;;0.43;;
47960;SDS011;33721;48.852;9.936;2023-04-01T05:51:58;2.10;;;0.30;;
47960;SDS011;33721;48.852;9.936;2023-04-01T05:54:24;2.25;;;0.30;;
47960;SDS011;33721;48.852;9.936;2023-04-01T05:56:50;2.00;;;0.40;;
47960;SDS011;33721;48.852;9.936;2023-04-01T05:59:15;1.63;;;0.32;;
47960;SDS011;33721;48.852;9.936;2023-04-01T06:01:41;1.48;;;0.20;;
47960;SDS011;33721;48.852;9.936;2023-04-01T06:04:10;1.33;;;0.17;;
47960;SDS011;33721;48.852;9.936;2023-04-01T06:06:40;1.33;;;0.20;;
47960;SDS011;33721;48.852;9.936;2023-04-01T06:09:18;3.10;;;0.20;;
47960;SDS011;33721;48.852;9.936;2023-04-01T06:12:36;1.20;;;0.20;;
47960;SDS011;33721;48.852;9.936;2023-04-01T11:29:00;2.17;;;0.40;;
47960;SDS011;33721;48.852;9.936;2023-04-01T11:42:38;1.10;;;0.40;;
47960;SDS011;33721;48.852;9.936;2023-04-01T11:56:49;1.58;;;0.40;;
47960;SDS011;33721;48.852;9.936;2023-04-01T12:04:54;1.27;;;0.50;;
47960;SDS011;33721;48.852;9.936;2023-04-01T12:07:45;0.68;;;0.30;;
47960;SDS011;33721;48.852;9.936;2023-04-01T12:10:32;0.77;;;0.25;;
47960;SDS011;33721;48.852;9.936;2023-04-01T12:13:29;0.68;;;0.40;;
47960;SDS011;33721;48.852;9.936;2023-04-01T12:21:36;1.00;;;0.60;;
47960;SDS011;33721;48.852;9.936;2023-04-01T12:29:44;1.17;;;0.38;;
47960;SDS011;33721;48.852;9.936;2023-04-01T12:38:03;3.63;;;0.80;;
47960;SDS011;33721;48.852;9.936;2023-04-01T12:46:47;3.45;;;0.50;;
47960;SDS011;33721;48.852;9.936;2023-04-01T12:49:33;0.93;;;0.30;;
47960;SDS011;33721;48.852;9.936;2023-04-01T12:57:39;0.40;;;0.28;;
47960;SDS011;33721;48.852;9.936;2023-04-01T13:03:28;0.70;;;0.22;;
47960;SDS011;33721;48.852;9.936;2023-04-01T13:22:15;1.65;;;0.47;;
47960;SDS011;33721;48.852;9.936;2023-04-01T13:27:48;1.45;;;0.70;;
47960;SDS011;33721;48.852;9.936;2023-04-01T13:30:38;1.27;;;0.50;;
47960;SDS011;33721;48.852;9.936;2023-04-01T13:33:17;2.42;;;0.40;;
47960;SDS011;33721;48.852;9.936;2023-04-01T13:36:18;2.38;;;0.30;;
47960;SDS011;33721;48.852;9.936;2023-04-01T13:41:55;0.93;;;0.38;;
47960;SDS011;33721;48.852;9.936;2023-04-01T13:44:56;0.60;;;0.30;;
47960;SDS011;33721;48.852;9.936;2023-04-01T13:50:37;0.75;;;0.38;;
47960;SDS011;33721;48.852;9.936;2023-04-01T13:56:16;0.85;;;0.40;;
47960;SDS011;33721;48.852;9.936;2023-04-01T13:59:07;0.70;;;0.30;;
47960;SDS011;33721;48.852;9.936;2023-04-01T14:04:21;0.25;;;0.20;;
47960;SDS011;33721;48.852;9.936;2023-04-01T14:15:29;0.63;;;0.20;;
47960;SDS011;33721;48.852;9.936;2023-04-01T14:24:14;1.58;;;0.20;;
47960;SDS011;33721;48.852;9.936;2023-04-01T14:33:15;0.57;;;0.25;;
47960;SDS011;33721;48.852;9.936;2023-04-01T14:44:55;3.08;;;0.40;;
47960;SDS011;33721;48.852;9.936;2023-04-01T14:47:54;1.95;;;0.40;;
47960;SDS011;33721;48.852;9.936;2023-04-01T14:50:39;0.70;;;0.30;;
47960;SDS011;33721;48.852;9.936;2023-04-01T14:55:51;0.70;;;0.30;;
47960;SDS011;33721;48.852;9.936;2023-04-01T14:58:21;0.68;;;0.30;;
47960;SDS011;33721;48.852;9.936;2023-04-01T15:03:25;1.17;;;0.50;;
47960;SDS011;33721;48.852;9.936;2023-04-01T15:06:12;0.85;;;0.45;;
47960;SDS011;33721;48.852;9.936;2023-04-01T15:28:38;2.45;;;0.85;;
47960;SDS011;33721;48.852;9.936;2023-04-01T15:36:25;1.95;;;0.95;;
47960;SDS011;33721;48.852;9.936;2023-04-01T15:38:53;1.58;;;0.80;;
47960;SDS011;33721;48.852;9.936;2023-04-01T15:44:00;2.45;;;0.60;;
47960;SDS011;33721;48.852;9.936;2023-04-01T15:54:38;3.70;;;0.57;;
47960;SDS011;33721;48.852;9.936;2023-04-01T15:57:15;1.17;;;0.50;;
47960;SDS011;33721;48.852;9.936;2023-04-01T16:02:48;0.47;;;0.28;;
47960;SDS011;33721;48.852;9.936;2023-04-01T16:14:19;4.78;;;0.60;;
47960;SDS011;33721;48.852;9.936;2023-04-01T16:16:55;2.08;;;0.80;;
47960;SDS011;33721;48.852;9.936;2023-04-01T16:19:41;1.20;;;0.60;;
47960;SDS011;33721;48.852;9.936;2023-04-01T16:22:26;1.48;;;0.60;;
47960;SDS011;33721;48.852;9.936;2023-04-01T16:28:09;4.13;;;0.80;;
47960;SDS011;33721;48.852;9.936;2023-04-01T16:41:49;1.48;;;0.50;;
47960;SDS011;33721;48.852;9.936;2023-04-01T16:44:31;1.90;;;0.57;;
47960;SDS011;33721;48.852;9.936;2023-04-01T16:47:31;1.65;;;0.57;;
47960;SDS011;33721;48.852;9.936;2023-04-01T16:58:10;2.00;;;0.85;;
47960;SDS011;33721;48.852;9.936;2023-04-01T17:00:50;1.30;;;0.47;;
47960;SDS011;33721;48.852;9.936;2023-04-01T17:03:26;0.98;;;0.52;;
47960;SDS011;33721;48.852;9.936;2023-04-01T17:06:16;1.63;;;0.60;;
47960;SDS011;33721;48.852;9.936;2023-04-01T17:14:33;1.27;;;0.60;;
47960;SDS011;33721;48.852;9.936;2023-04-01T17:17:29;2.75;;;0.60;;
47960;SDS011;33721;48.852;9.936;2023-04-01T17:22:54;1.77;;;0.75;;
47960;SDS011;33721;48.852;9.936;2023-04-01T17:30:39;2.95;;;1.30;;
47960;SDS011;33721;48.852;9.936;2023-04-01T17:33:40;5.43;;;0.93;;
47960;SDS011;33721;48.852;9.936;2023-04-01T17:44:56;2.08;;;0.80;;
47960;SDS011;33721;48.852;9.936;2023-04-01T17:51:03;3.92;;;0.70;;
47960;SDS011;33721;48.852;9.936;2023-04-01T17:53:33;1.95;;;0.93;;
47960;SDS011;33721;48.852;9.936;2023-04-01T18:04:13;4.38;;;1.25;;
47960;SDS011;33721;48.852;9.936;2023-04-01T18:06:54;3.60;;;1.48;;
47960;SDS011;33721;48.852;9.936;2023-04-01T18:09:52;3.50;;;1.35;;
47960;SDS011;33721;48.852;9.936;2023-04-01T18:12:26;2.83;;;1.33;;
47960;SDS011;33721;48.852;9.936;2023-04-01T18:17:39;3.58;;;1.55;;
47960;SDS011;33721;48.852;9.936;2023-04-01T18:23:13;3.85;;;1.48;;
47960;SDS011;33721;48.852;9.936;2023-04-01T18:26:01;2.80;;;1.60;;
47960;SDS011;33721;48.852;9.936;2023-04-01T18:33:36;5.47;;;1.85;;
47960;SDS011;33721;48.852;9.936;2023-04-01T18:36:13;4.55;;;1.83;;
47960;SDS011;33721;48.852;9.936;2023-04-01T18:41:43;3.72;;;1.77;;
47960;SDS011;33721;48.852;9.936;2023-04-01T18:44:28;6.40;;;1.70;;
47960;SDS011;33721;48.852;9.936;2023-04-01T18:47:24;5.28;;;1.55;;
47960;SDS011;33721;48.852;9.936;2023-04-01T18:55:40;3.47;;;1.33;;
47960;SDS011;33721;48.852;9.936;2023-04-01T18:58:20;3.30;;;1.10;;
47960;SDS011;33721;48.852;9.936;2023-04-01T19:09:21;3.47;;;1.17;;
47960;SDS011;33721;48.852;9.936;2023-04-01T19:17:51;3.33;;;1.13;;
47960;SDS011;33721;48.852;9.936;2023-04-01T19:20:41;2.65;;;1.40;;
47960;SDS011;33721;48.852;9.936;2023-04-01T19:26:32;5.75;;;1.25;;
47960;SDS011;33721;48.852;9.936;2023-04-01T19:37:39;2.83;;;1.33;;
47960;SDS011;33721;48.852;9.936;2023-04-01T19:48:25;4.68;;;1.60;;
47960;SDS011;33721;48.852;9.936;2023-04-01T19:51:45;3.22;;;1.55;;
47960;SDS011;33721;48.852;9.936;2023-04-01T19:59:40;4.00;;;2.03;;
47960;SDS011;33721;48.852;9.936;2023-04-01T20:05:03;6.38;;;2.30;;
47960;SDS011;33721;48.852;9.936;2023-04-01T20:07:47;5.65;;;1.88;;
47960;SDS011;33721;48.852;9.936;2023-04-01T20:10:22;4.22;;;1.83;;
47960;SDS011;33721;48.852;9.936;2023-04-01T20:15:47;4.07;;;1.88;;
47960;SDS011;33721;48.852;9.936;2023-04-01T20:24:21;3.58;;;1.58;;
47960;SDS011;33721;48.852;9.936;2023-04-01T20:27:05;4.00;;;1.50;;
47960;SDS011;33721;48.852;9.936;2023-04-01T20:35:12;6.03;;;1.50;;
47960;SDS011;33721;48.852;9.936;2023-04-01T20:38:11;3.65;;;1.33;;
47960;SDS011;33721;48.852;9.936;2023-04-01T20:40:51;3.15;;;1.02;;
47960;SDS011;33721;48.852;9.936;2023-04-01T20:43:33;3.22;;;1.30;;
47960;SDS011;33721;48.852;9.936;2023-04-01T21:02:46;3.63;;;1.17;;
47960;SDS011;33721;48.852;9.936;2023-04-01T21:08:02;6.25;;;1.60;;
47960;SDS011;33721;48.852;9.936;2023-04-01T21:13:33;4.30;;;1.92;;
47960;SDS011;33721;48.852;9.936;2023-04-01T21:22:06;2.60;;;1.20;;
47960;SDS011;33721;48.852;9.936;2023-04-01T21:28:05;2.22;;;1.02;;
47960;SDS011;33721;48.852;9.936;2023-04-01T21:51:03;4.38;;;0.82;;
47960;SDS011;33721;48.852;9.936;2023-04-01T21:53:44;1.70;;;0.90;;
47960;SDS011;33721;48.852;9.936;2023-04-01T21:59:05;4.22;;;1.10;;
47960;SDS011;33721;48.852;9.936;2023-04-01T22:10:16;3.28;;;1.15;;
47960;SDS011;33721;48.852;9.936;2023-04-01T22:12:54;4.57;;;1.00;;
47960;SDS011;33721;48.852;9.936;2023-04-01T22:29:07;4.68;;;1.23;;
47960;SDS011;33721;48.852;9.936;2023-04-01T22:37:18;2.63;;;1.10;;
47960;SDS011;33721;48.852;9.936;2023-04-01T22:42:48;4.05;;;1.25;;
47960;SDS011;33721;48.852;9.936;2023-04-01T22:45:42;2.37;;;1.07;;
47960;SDS011;33721;48.852;9.936;2023-04-01T22:48:18;2.30;;;1.25;;
47960;SDS011;33721;48.852;9.936;2023-04-01T22:50:55;2.70;;;1.30;;
47960;SDS011;33721;48.852;9.936;2023-04-01T22:59:24;3.22;;;1.42;;
47960;SDS011;33721;48.852;9.936;2023-04-01T23:02:12;4.38;;;1.83;;
47960;SDS011;33721;48.852;9.936;2023-04-01T23:04:48;3.65;;;1.98;;
47960;SDS011;33721;48.852;9.936;2023-04-01T23:13:19;3.17;;;1.60;;
47960;SDS011;33721;48.852;9.936;2023-04-01T23:15:50;2.83;;;1.40;;
47960;SDS011;33721;48.852;9.936;2023-04-01T23:31:24;9.30;;;1.75;;
47960;SDS011;33721;48.852;9.936;2023-04-01T23:33:56;3.50;;;1.27;;
47960;SDS011;33721;48.852;9.936;2023-04-01T23:36:51;3.97;;;1.67;;
47960;SDS011;33721;48.852;9.936;2023-04-01T23:39:29;3.60;;;1.73;;
47960;SDS011;33721;48.852;9.936;2023-04-01T23:42:04;4.45;;;1.95;;
47960;SDS011;33721;48.852;9.936;2023-04-01T23:44:33;3.33;;;1.40;;
47960;SDS011;33721;48.852;9.936;2023-04-01T23:47:00;3.58;;;1.42;;
47960;SDS011;33721;48.852;9.936;2023-04-01T23:49:29;4.13;;;1.80;;
47960;SDS011;33721;48.852;9.936;2023-04-01T23:52:03;5.03;;;1.80;;
47960;SDS011;33721;48.852;9.936;2023-04-01T23:54:51;2.55;;;1.30;;
47960;SDS011;33721;48.852;9.936;2023-04-01T23:57:28;3.65;;;1.65;;
